createdAt,value
2023-02-23T00:12:03.313Z,933.29
2023-02-23T00:55:13.244Z,1000.00
2023-02-23T00:56:13.402Z,1000.00
2023-02-23T00:57:13.713Z,1000.00
2023-02-23T00:58:13.894Z,1000.00
2023-02-23T00:59:14.248Z,1000.00
2023-02-23T01:00:14.414Z,1000.00
2023-02-23T01:01:14.764Z,1000.00
2023-02-23T01:02:14.930Z,1000.00
2023-02-23T01:03:15.172Z,1000.00
2023-02-23T01:04:15.441Z,1000.00
2023-02-23T01:05:15.679Z,1000.00
2023-02-23T01:06:15.963Z,1000.00
2023-02-23T01:07:16.164Z,1000.00
2023-02-23T01:08:16.396Z,1000.00
2023-02-23T01:09:16.638Z,1000.00
2023-02-23T01:10:16.888Z,1000.00
2023-02-23T01:11:17.379Z,1000.00
2023-02-23T01:12:17.153Z,1000.00
2023-02-23T01:13:17.240Z,1000.00
2023-02-23T01:14:17.341Z,1000.00
2023-02-23T01:15:17.424Z,1000.00
2023-02-23T01:16:17.515Z,1000.00
2023-02-23T01:17:17.613Z,1000.00
2023-02-23T01:18:17.713Z,1000.00
2023-02-23T01:19:17.822Z,1000.00
2023-02-23T01:20:17.959Z,1000.00
2023-02-23T01:21:18.424Z,1000.00
2023-02-23T01:22:18.169Z,1000.00
2023-02-23T01:23:20.255Z,1000.00
2023-02-23T01:24:18.374Z,1000.00
2023-02-23T01:25:18.461Z,1000.00
2023-02-23T01:26:18.531Z,1000.00
2023-02-23T01:27:18.600Z,1000.00
2023-02-23T01:28:18.681Z,1000.00
2023-02-23T01:29:18.737Z,1000.00
2023-02-23T01:30:18.807Z,1000.00
2023-02-23T01:31:19.166Z,1000.00
2023-02-23T01:32:19.054Z,1000.00
2023-02-23T01:33:19.046Z,1000.00
2023-02-23T01:34:19.111Z,1000.00
2023-02-23T01:35:19.185Z,1000.00
2023-02-23T01:36:19.254Z,1000.00
2023-02-23T01:37:19.330Z,1000.00
2023-02-23T01:38:19.384Z,1000.00
2023-02-23T01:39:19.466Z,1000.00
2023-02-23T01:40:19.540Z,1000.00
2023-02-23T01:41:19.927Z,1000.00
2023-02-23T01:42:19.675Z,1000.00
2023-02-23T01:43:19.738Z,1000.00
2023-02-23T01:44:19.801Z,1000.00
2023-02-23T01:45:19.854Z,1000.00
2023-02-23T01:46:19.957Z,1000.00
2023-02-23T01:47:19.960Z,1000.00
2023-02-23T01:48:20.024Z,1000.00
2023-02-23T01:49:20.119Z,1000.00
2023-02-23T01:50:20.129Z,1000.00
2023-02-23T01:51:20.365Z,1000.00
2023-02-23T01:52:20.229Z,1000.00
2023-02-23T01:53:20.290Z,1000.00
2023-02-23T01:54:20.329Z,1000.00
2023-02-23T01:55:20.380Z,1000.00
2023-02-23T01:56:20.442Z,1000.00
2023-02-23T01:57:20.518Z,1000.00
2023-02-23T01:58:20.542Z,1000.00
2023-02-23T01:59:20.579Z,1000.00
2023-02-23T02:32:23.190Z,1000.00
2023-02-23T02:33:23.156Z,1000.00
2023-02-23T02:34:23.382Z,1000.00
2023-02-23T02:35:23.632Z,1000.00
2023-02-23T02:36:23.909Z,1000.00
2023-02-23T02:37:24.548Z,1000.00
2023-02-23T02:38:24.265Z,1000.00
2023-02-23T02:39:24.358Z,1000.00
2023-02-23T02:40:24.425Z,1000.00
2023-02-23T02:41:24.531Z,1000.00
2023-02-23T02:42:24.641Z,1000.00
2023-02-23T02:43:24.769Z,1000.00
2023-02-23T02:44:24.915Z,1000.00
2023-02-23T02:45:25.052Z,1000.00
2023-02-23T02:46:25.198Z,1000.00
2023-02-23T02:47:25.285Z,1000.00
2023-02-23T02:48:25.377Z,1000.00
2023-02-23T02:49:25.465Z,1000.00
2023-02-23T02:50:25.585Z,1000.00
2023-02-23T02:51:25.687Z,1000.00
2023-02-23T02:52:25.801Z,1000.00
2023-02-23T02:53:25.899Z,1000.00
2023-02-23T02:54:26.047Z,1000.00
2023-02-23T02:55:26.108Z,1000.00
2023-02-23T02:56:26.191Z,1000.00
2023-02-23T02:57:26.345Z,1000.00
2023-02-23T02:58:26.361Z,1000.00
2023-02-23T02:59:26.450Z,1000.00
2023-02-23T03:00:26.530Z,1000.00
2023-02-23T03:01:26.651Z,1000.00
2023-02-23T03:02:26.713Z,1000.00
2023-02-23T03:03:26.782Z,1000.00
2023-02-23T03:04:26.881Z,1000.00
2023-02-23T03:05:27.035Z,1000.00
2023-02-23T03:06:27.056Z,1000.00
2023-02-23T03:07:27.122Z,1000.00
2023-02-23T03:08:27.201Z,1000.00
2023-02-23T03:09:27.270Z,1000.00
2023-02-23T03:10:27.346Z,1000.00
2023-02-23T03:11:27.429Z,1000.00
2023-02-23T03:12:27.546Z,1000.00
2023-02-23T03:13:27.678Z,1000.00
2023-02-23T03:14:27.813Z,1000.00
2023-02-23T03:15:27.934Z,1000.00
2023-02-23T03:16:28.064Z,1000.00
2023-02-23T03:17:28.200Z,1000.00
2023-02-23T03:18:28.319Z,1000.00
2023-02-23T03:19:28.429Z,1000.00
2023-02-23T03:20:28.558Z,1000.00
2023-02-23T03:21:28.687Z,1000.00
2023-02-23T03:22:28.813Z,1000.00
2023-02-23T03:23:28.940Z,1000.00
2023-02-23T03:24:29.077Z,1000.00
2023-02-23T04:03:33.222Z,1000.00
2023-02-23T04:04:33.273Z,1000.00
2023-02-23T04:05:33.366Z,1000.00
2023-02-23T04:06:33.492Z,1000.00
2023-02-23T04:07:33.590Z,1000.00
2023-02-23T04:08:33.698Z,1000.00
2023-02-23T04:13:34.283Z,1000.00
2023-02-23T04:14:34.401Z,1000.00
2023-02-23T04:15:34.521Z,1000.00
2023-02-23T04:16:34.682Z,1000.00
2023-02-23T04:17:34.775Z,1000.00
2023-02-23T04:18:34.894Z,1000.00
2023-02-23T04:19:35.005Z,1000.00
2023-02-23T04:20:35.240Z,1000.00
2023-02-23T04:21:35.454Z,1000.00
2023-02-23T04:22:35.714Z,1000.00
2023-02-23T04:54:43.368Z,155.31
2023-02-23T04:55:43.576Z,148.76
2023-02-23T04:56:43.855Z,138.85
2023-02-23T04:57:44.088Z,170.58
2023-02-23T04:58:44.224Z,178.80
2023-02-23T04:59:44.537Z,182.04
2023-02-23T05:00:44.748Z,179.26
2023-02-23T05:01:44.981Z,145.30
2023-02-23T05:02:45.188Z,118.98
2023-02-23T05:03:45.409Z,122.38
2023-02-23T05:04:45.663Z,142.04
2023-02-23T05:05:45.880Z,130.80
2023-02-23T05:06:46.138Z,93.64
2023-02-23T05:07:46.410Z,80.66
2023-02-23T05:08:46.616Z,92.64
2023-02-23T05:09:47.588Z,93.19
2023-02-23T05:10:46.931Z,87.10
2023-02-23T05:11:47.015Z,71.46
2023-02-23T05:12:47.115Z,76.13
2023-02-23T05:13:47.215Z,76.25
2023-02-23T05:14:47.298Z,72.77
2023-02-23T05:15:47.405Z,67.66
2023-02-23T05:16:47.465Z,70.92
2023-02-23T05:17:47.560Z,77.47
2023-02-23T05:18:47.656Z,70.25
2023-02-23T05:19:47.746Z,68.02
2023-02-23T05:20:47.831Z,65.14
2023-02-23T05:21:47.903Z,66.38
2023-02-23T05:22:47.989Z,71.43
2023-02-23T05:23:48.081Z,69.03
2023-02-23T05:24:48.160Z,68.82
2023-02-23T05:25:48.256Z,88.08
2023-02-23T05:26:48.372Z,90.85
2023-02-23T05:27:48.478Z,91.93
2023-02-23T05:28:48.579Z,112.33
2023-02-23T05:29:48.652Z,147.34
2023-02-23T05:30:48.912Z,165.68
2023-02-23T05:31:49.053Z,161.42
2023-02-23T05:32:48.998Z,154.16
2023-02-23T05:33:49.100Z,154.47
2023-02-23T05:34:49.181Z,145.46
2023-02-23T05:35:49.263Z,147.25
2023-02-23T05:36:49.351Z,131.12
2023-02-23T05:37:49.436Z,135.30
2023-02-23T05:38:49.515Z,145.69
2023-02-23T05:42:49.829Z,189.77
2023-02-23T06:14:53.145Z,1000.00
2023-02-23T06:15:53.284Z,1000.00
2023-02-23T06:16:53.330Z,1000.00
2023-02-23T06:17:54.037Z,1000.00
2023-02-23T06:18:53.437Z,724.58
2023-02-23T06:19:53.538Z,554.68
2023-02-23T06:20:53.616Z,724.23
2023-02-23T06:21:53.779Z,1000.00
2023-02-23T06:23:53.837Z,1000.00
2023-02-23T06:24:53.918Z,1000.00
2023-02-23T06:25:53.969Z,1000.00
2023-02-23T06:26:54.054Z,1000.00
2023-02-23T06:27:54.153Z,1000.00
2023-02-23T06:28:54.264Z,1000.00
2023-02-23T06:29:54.393Z,1000.00
2023-02-23T06:30:54.634Z,1000.00
2023-02-23T06:37:55.309Z,1000.00
2023-02-23T07:41:03.293Z,770.14
2023-02-23T07:42:03.510Z,705.94
2023-02-23T07:43:03.760Z,694.71
2023-02-23T07:44:04.002Z,615.00
2023-02-23T07:45:04.262Z,687.11
2023-02-23T07:46:04.541Z,731.53
2023-02-23T07:47:04.744Z,552.69
2023-02-23T07:48:05.052Z,462.14
2023-02-23T07:49:05.092Z,297.81
2023-02-23T07:50:05.205Z,300.44
2023-02-23T07:51:05.312Z,253.87
2023-02-23T07:52:05.416Z,222.71
2023-02-23T07:53:05.528Z,217.09
2023-02-23T07:54:05.628Z,203.27
2023-02-23T07:55:05.724Z,224.33
2023-02-23T07:56:05.829Z,208.13
2023-02-23T07:57:05.908Z,200.66
2023-02-23T07:58:06.006Z,155.69
2023-02-23T07:59:06.085Z,123.86
2023-02-23T08:00:06.205Z,117.92
2023-02-23T08:01:06.344Z,171.24
2023-02-23T08:02:06.341Z,242.72
2023-02-23T08:04:06.524Z,379.14
2023-02-23T08:05:06.578Z,305.80
2023-02-23T09:05:14.690Z,478.88
2023-02-23T09:11:13.118Z,417.43
2023-02-23T09:12:13.123Z,569.81
2023-02-23T09:13:13.211Z,680.61
2023-02-23T09:14:13.294Z,747.31
2023-02-23T09:15:13.404Z,830.00
2023-02-23T09:16:13.516Z,838.96
2023-02-23T09:17:13.527Z,829.60
2023-02-23T09:18:13.610Z,932.43
2023-02-23T09:19:13.698Z,1000.00
2023-02-23T09:20:13.770Z,1000.00
2023-02-23T09:21:13.830Z,1000.00
2023-02-23T09:22:13.934Z,1000.00
2023-02-23T09:23:13.957Z,1000.00
2023-02-23T09:24:14.053Z,1000.00
2023-02-23T09:25:14.198Z,907.48
2023-02-23T09:26:14.139Z,871.30
2023-02-23T09:27:14.302Z,876.33
2023-02-23T09:28:14.558Z,1000.00
2023-02-23T09:29:14.783Z,1000.00
2023-02-23T10:38:15.817Z,26.32
2023-02-23T10:39:15.796Z,25.32
2023-02-23T10:40:16.648Z,30.42
2023-02-23T10:41:15.783Z,41.57
2023-02-23T10:42:15.907Z,55.29
2023-02-23T10:43:15.831Z,64.41
2023-02-23T10:44:17.215Z,60.40
2023-02-23T10:45:16.043Z,56.30
2023-02-23T10:46:16.108Z,64.92
2023-02-23T10:47:17.048Z,80.02
2023-02-23T10:48:16.211Z,108.94
2023-02-23T10:49:16.182Z,132.59
2023-02-23T10:50:16.203Z,160.15
2023-02-23T10:51:16.458Z,164.40
2023-02-23T11:07:19.918Z,274.44
2023-02-23T11:08:20.145Z,263.50
2023-02-23T11:09:21.608Z,309.47
2023-02-23T11:10:20.438Z,368.50
2023-02-23T11:11:20.709Z,424.70
2023-02-23T11:12:20.642Z,418.00
2023-02-23T11:13:20.452Z,348.20
2023-02-23T11:16:20.521Z,427.23
2023-02-23T11:18:20.407Z,366.39
2023-02-23T11:53:19.813Z,11.66
2023-02-23T12:00:20.281Z,20.78
2023-02-23T12:15:23.401Z,20.28
2023-02-23T12:16:23.371Z,18.41
2023-02-23T12:17:23.465Z,13.42
2023-02-23T12:18:23.601Z,11.97
2023-02-23T12:19:23.894Z,11.33
2023-02-23T12:20:24.139Z,11.66
2023-02-23T12:21:24.293Z,11.60
2023-02-23T12:22:24.480Z,8.86
2023-02-23T12:23:24.665Z,7.66
2023-02-23T12:24:24.841Z,7.61
2023-02-23T12:25:25.004Z,8.42
2023-02-23T12:26:25.209Z,7.21
2023-02-23T12:27:25.367Z,7.63
2023-02-23T12:28:25.546Z,7.02
2023-02-23T12:29:25.715Z,7.25
2023-02-23T12:30:25.900Z,6.80
2023-02-23T12:31:26.087Z,3.66
2023-02-23T12:32:26.315Z,2.00
2023-02-23T13:12:33.228Z,3.54
2023-02-23T13:13:33.312Z,2.82
2023-02-23T13:14:33.503Z,2.06
2023-02-23T13:15:33.645Z,2.43
2023-02-23T13:16:33.900Z,2.44
2023-02-23T13:17:33.964Z,2.44
2023-02-23T13:18:34.142Z,2.16
2023-02-23T13:19:34.323Z,1.93
2023-02-23T13:20:34.504Z,2.71
2023-02-23T13:21:34.677Z,3.05
2023-02-23T13:22:34.874Z,2.81
2023-02-23T13:23:34.954Z,2.73
2023-02-23T13:24:35.148Z,2.61
2023-02-23T13:25:35.346Z,2.81
2023-02-23T13:26:35.545Z,2.24
2023-02-23T13:27:35.916Z,2.27
2023-02-23T13:28:35.992Z,2.59
2023-02-23T13:29:36.182Z,2.52
2023-02-23T13:30:36.468Z,2.56
2023-02-23T13:31:36.779Z,2.83
2023-02-23T13:32:36.804Z,2.36
2023-02-23T13:33:43.864Z,3.30
2023-02-23T13:34:37.959Z,2.86
2023-02-23T13:35:36.924Z,2.69
2023-02-23T13:36:36.888Z,2.32
2023-02-23T13:37:36.867Z,2.07
2023-02-23T13:38:36.851Z,2.04
2023-02-23T13:39:36.845Z,2.15
2023-02-23T13:40:36.850Z,2.36
2023-02-23T13:41:36.773Z,3.38
2023-02-23T13:42:36.750Z,2.99
2023-02-23T13:43:36.729Z,2.76
2023-02-23T13:44:36.702Z,3.03
2023-02-23T13:45:36.656Z,2.96
2023-02-23T13:46:36.616Z,2.71
2023-02-23T13:47:36.598Z,2.69
2023-02-23T13:48:41.774Z,2.98
2023-02-23T13:49:37.488Z,2.81
2023-02-23T13:50:36.462Z,2.52
2023-02-23T13:51:36.415Z,2.81
2023-02-23T13:52:36.381Z,3.17
2023-02-23T13:53:36.335Z,3.62
2023-02-23T13:54:36.303Z,4.04
2023-02-23T13:55:48.216Z,4.80
2023-02-23T13:56:37.204Z,4.86
2023-02-23T13:57:36.160Z,4.93
2023-02-23T13:58:36.103Z,4.67
2023-02-23T13:59:36.070Z,3.86
2023-02-23T14:00:36.015Z,4.60
2023-02-23T14:01:36.022Z,5.24
2023-02-23T14:02:36.043Z,4.25
2023-02-23T14:03:36.638Z,9.42
2023-02-23T14:04:35.871Z,10.19
2023-02-23T14:05:35.853Z,7.52
2023-02-23T14:06:35.874Z,4.92
2023-02-23T14:07:35.875Z,2.89
2023-02-23T14:08:35.886Z,3.15
2023-02-23T14:09:35.903Z,3.80
2023-02-23T14:10:35.930Z,3.54
2023-02-23T14:11:35.950Z,3.10
2023-02-23T14:12:35.969Z,2.56
2023-02-23T14:13:35.970Z,2.15
2023-02-23T14:14:35.985Z,2.19
2023-02-23T14:15:36.002Z,2.08
2023-02-23T14:16:36.066Z,2.30
2023-02-23T14:17:36.051Z,2.25
2023-02-23T14:18:36.075Z,2.56
2023-02-23T14:19:36.092Z,2.71
2023-02-23T14:20:36.091Z,3.17
2023-02-23T14:21:36.131Z,2.75
2023-02-23T14:22:36.120Z,2.76
2023-02-23T14:23:36.133Z,3.00
2023-02-23T14:24:36.187Z,2.73
2023-02-23T14:25:36.385Z,2.52
2023-02-23T14:26:36.632Z,2.91
2023-02-23T14:27:41.529Z,3.67
2023-02-23T14:28:37.751Z,3.68
2023-02-23T14:29:36.705Z,3.74
2023-02-23T14:30:36.690Z,4.22
2023-02-23T14:31:36.745Z,4.47
2023-02-23T14:32:36.740Z,4.56
2023-02-23T14:33:36.513Z,4.54
2023-02-23T14:34:36.456Z,4.21
2023-02-23T14:35:36.411Z,4.49
2023-02-23T14:36:36.358Z,4.60
2023-02-23T14:37:36.316Z,4.33
2023-02-23T14:39:36.331Z,4.22
2023-02-23T15:13:38.511Z,2.64
2023-02-23T15:14:38.512Z,3.02
2023-02-23T15:15:38.493Z,3.74
2023-02-23T15:16:38.500Z,3.44
2023-02-23T15:17:38.481Z,3.66
2023-02-23T15:18:38.577Z,3.06
2023-02-23T15:19:38.512Z,3.13
2023-02-23T15:20:38.417Z,2.85
2023-02-23T16:19:41.151Z,13.36
2023-02-23T16:20:40.943Z,14.05
2023-02-23T16:21:40.973Z,13.76
2023-02-23T16:22:41.002Z,12.98
2023-02-23T16:23:41.056Z,14.20
2023-02-23T16:24:41.103Z,16.84
2023-02-23T16:25:41.138Z,17.51
2023-02-23T16:26:41.153Z,14.15
2023-02-23T16:27:41.169Z,14.79
2023-02-23T16:28:41.208Z,15.98
2023-02-23T16:29:41.249Z,15.91
2023-02-23T16:30:41.274Z,18.27
2023-02-23T16:31:43.279Z,19.30
2023-02-23T16:32:41.464Z,18.78
2023-02-23T16:33:41.336Z,21.51
2023-02-23T16:34:41.325Z,24.66
2023-02-23T16:35:41.345Z,30.42
2023-02-23T16:36:41.343Z,27.26
2023-02-23T16:37:41.340Z,26.90
2023-02-23T16:38:41.346Z,24.85
2023-02-23T16:39:41.357Z,26.19
2023-02-23T16:40:41.364Z,20.87
2023-02-23T16:41:41.383Z,19.60
2023-02-23T16:42:41.434Z,13.28
2023-02-23T16:43:41.473Z,11.78
2023-02-23T16:44:43.817Z,10.42
2023-02-23T16:45:41.663Z,11.07
2023-02-23T18:08:45.937Z,94.42
2023-02-23T18:10:45.941Z,140.37
2023-02-23T18:11:45.945Z,153.42
2023-02-23T18:12:45.969Z,170.17
2023-02-23T18:13:47.923Z,158.39
2023-02-23T18:14:45.963Z,142.84
2023-02-23T18:15:46.001Z,137.72
2023-02-23T18:17:46.006Z,157.06
2023-02-23T18:19:47.802Z,169.73
2023-02-23T18:20:46.035Z,166.14
2023-02-23T18:21:46.055Z,261.61
2023-02-23T18:22:46.076Z,292.94
2023-02-23T18:23:46.120Z,303.99
2023-02-23T18:24:46.143Z,345.95
2023-02-23T18:25:46.163Z,388.77
2023-02-23T18:26:46.208Z,366.07
2023-02-23T18:27:46.215Z,366.61
2023-02-23T18:50:46.873Z,565.53
2023-02-23T19:54:56.046Z,566.14
2023-02-23T19:55:56.305Z,623.26
2023-02-23T19:56:57.725Z,532.31
2023-02-23T19:57:56.579Z,431.56
2023-02-23T19:58:56.609Z,382.83
2023-02-23T19:59:56.683Z,362.67
2023-02-23T20:00:56.730Z,456.88
2023-02-23T20:01:56.815Z,791.07
2023-02-23T20:02:57.686Z,1000.00
2023-02-23T20:03:56.875Z,1000.00
2023-02-23T20:04:56.951Z,1000.00
2023-02-23T20:05:56.958Z,945.48
2023-02-23T20:06:57.011Z,938.23
2023-02-23T20:07:57.054Z,906.61
2023-02-23T20:08:57.110Z,895.49
2023-02-23T20:09:57.136Z,886.95
2023-02-23T20:10:57.176Z,857.18
2023-02-23T20:11:57.231Z,827.99
2023-02-23T20:12:57.284Z,888.73
2023-02-23T20:13:57.313Z,814.14
2023-02-23T20:14:57.350Z,800.56
2023-02-23T20:15:57.389Z,826.65
2023-02-23T20:16:57.461Z,778.99
2023-02-23T20:17:57.480Z,671.58
2023-02-23T20:18:57.587Z,728.76
2023-02-23T20:19:57.606Z,779.90
2023-02-23T20:20:57.655Z,784.14
2023-02-23T20:21:57.767Z,806.32
2023-02-23T20:22:57.753Z,888.71
2023-02-23T20:23:57.979Z,896.42
2023-02-23T20:24:58.142Z,899.17
2023-02-23T20:25:58.324Z,739.78
2023-02-23T20:26:58.501Z,739.20
2023-02-23T20:27:58.685Z,829.01
2023-02-23T20:28:58.862Z,804.68
2023-02-23T20:29:59.081Z,854.95
2023-02-23T20:30:59.333Z,892.35
2023-02-23T20:31:59.549Z,781.07
2023-02-23T20:32:59.666Z,754.80
2023-02-23T20:33:59.837Z,630.13
2023-02-23T20:35:00.014Z,634.88
2023-02-23T20:36:00.254Z,637.35
2023-02-23T20:37:00.410Z,615.14
2023-02-23T20:38:00.626Z,617.20
2023-02-23T20:39:00.813Z,683.78
2023-02-23T20:40:01.013Z,726.02
2023-02-23T20:41:01.219Z,817.54
2023-02-23T20:42:01.420Z,880.40
2023-02-23T20:43:01.610Z,848.52
2023-02-23T20:44:01.876Z,836.50
2023-02-23T20:45:01.998Z,952.98
2023-02-23T20:46:02.284Z,1000.00
2023-02-23T20:47:02.422Z,1000.00
2023-02-23T20:48:02.627Z,1000.00
2023-02-23T20:49:02.828Z,1000.00
2023-02-23T20:50:03.034Z,1000.00
2023-02-23T20:51:03.259Z,1000.00
2023-02-23T20:52:03.449Z,1000.00
2023-02-23T20:53:03.646Z,1000.00
2023-02-23T20:54:03.850Z,1000.00
2023-02-23T20:55:04.056Z,1000.00
2023-02-23T20:56:04.298Z,1000.00
2023-02-23T20:57:05.273Z,1000.00
2023-02-23T20:58:04.541Z,1000.00
2023-02-23T20:59:04.610Z,1000.00
2023-02-23T21:00:04.674Z,1000.00
2023-02-23T21:01:04.785Z,1000.00
2023-02-23T21:02:04.834Z,1000.00
2023-02-23T21:03:04.897Z,1000.00
2023-02-23T21:04:05.005Z,1000.00
2023-02-23T21:05:05.051Z,897.02
2023-02-23T21:06:05.127Z,806.65
2023-02-23T21:07:05.208Z,698.18
2023-02-23T21:08:05.774Z,608.30
2023-02-23T21:09:05.381Z,634.04
2023-02-23T21:10:05.438Z,759.16
2023-02-23T21:11:05.507Z,971.27
2023-02-23T21:12:05.579Z,1000.00
2023-02-23T21:13:05.658Z,1000.00
2023-02-23T21:14:05.723Z,1000.00
2023-02-23T21:15:05.802Z,1000.00
2023-02-23T21:16:05.962Z,925.63
2023-02-23T21:17:05.960Z,725.55
2023-02-23T21:18:06.033Z,537.46
2023-02-23T21:19:06.130Z,459.48
2023-02-23T21:20:06.196Z,407.49
2023-02-23T21:21:06.275Z,462.65
2023-02-23T21:22:06.366Z,523.68
2023-02-23T21:23:06.451Z,519.25
2023-02-23T21:24:06.540Z,565.30
2023-02-23T21:25:06.621Z,604.89
2023-02-23T21:26:06.700Z,723.25
2023-02-23T21:27:06.780Z,753.32
2023-02-23T21:28:06.887Z,752.16
2023-02-23T21:29:06.968Z,654.95
2023-02-23T21:30:09.197Z,590.57
2023-02-23T21:31:07.119Z,601.77
2023-02-23T21:32:07.242Z,576.78
2023-02-23T21:33:07.326Z,529.75
2023-02-23T21:34:07.214Z,533.13
2023-02-23T21:35:07.290Z,588.77
2023-02-23T21:36:07.291Z,650.82
2023-02-23T21:37:07.317Z,646.48
2023-02-23T21:38:07.367Z,529.84
2023-02-23T21:39:07.447Z,385.78
2023-02-23T21:40:07.454Z,316.49
2023-02-23T21:41:07.506Z,402.61
2023-02-23T21:42:07.544Z,497.71
2023-02-23T21:43:07.589Z,496.81
2023-02-23T21:44:07.629Z,501.97
2023-02-23T21:45:07.694Z,647.49
2023-02-23T21:46:07.792Z,779.54
2023-02-23T21:47:07.781Z,716.67
2023-02-23T21:48:07.821Z,539.96
2023-02-23T21:49:07.874Z,477.00
2023-02-23T21:50:07.917Z,438.22
2023-02-23T21:51:07.976Z,479.92
2023-02-23T21:52:08.007Z,499.59
2023-02-23T21:53:08.041Z,422.57
2023-02-23T21:54:08.790Z,386.26
2023-02-23T21:55:19.598Z,366.28
2023-02-23T21:56:09.188Z,367.32
2023-02-23T21:57:08.217Z,371.95
2023-02-23T21:58:08.261Z,383.08
2023-02-23T21:59:08.368Z,446.08
2023-02-23T22:00:08.360Z,533.22
2023-02-23T22:01:08.401Z,481.38
2023-02-23T22:02:08.506Z,415.82
2023-02-23T22:03:08.599Z,402.33
2023-02-23T22:04:08.548Z,456.34
2023-02-23T22:05:08.800Z,452.31
2023-02-23T22:06:08.638Z,427.47
2023-02-23T22:07:08.665Z,433.58
2023-02-23T22:08:08.707Z,458.77
2023-02-23T22:09:08.758Z,525.53
2023-02-23T22:10:08.864Z,500.11
2023-02-23T22:11:08.938Z,509.29
2023-02-23T22:12:09.026Z,592.44
2023-02-23T22:13:09.114Z,830.30
2023-02-23T22:14:09.197Z,726.19
2023-02-23T22:15:09.308Z,574.20
2023-02-23T22:16:09.406Z,595.51
2023-02-23T22:17:09.465Z,591.76
2023-02-23T22:18:09.561Z,607.72
2023-02-23T22:19:10.333Z,538.87
2023-02-23T22:20:09.753Z,452.70
2023-02-23T22:21:09.841Z,431.92
2023-02-23T22:22:09.956Z,485.90
2023-02-23T22:23:10.090Z,541.45
2023-02-23T22:24:10.182Z,586.48
2023-02-23T22:25:10.307Z,530.62
2023-02-23T22:26:10.433Z,535.18
2023-02-23T22:27:10.550Z,572.15
2023-02-23T22:28:10.644Z,631.19
2023-02-23T22:29:10.773Z,609.70
2023-02-23T22:30:10.865Z,529.65
2023-02-23T22:31:11.088Z,367.16
2023-02-23T22:32:11.339Z,271.30
2023-02-23T22:33:11.424Z,286.08
2023-02-23T22:34:11.361Z,253.91
2023-02-23T22:35:11.483Z,268.97
2023-02-23T22:36:11.598Z,247.33
2023-02-23T22:37:11.718Z,254.60
2023-02-23T23:14:15.972Z,983.25
2023-02-23T23:15:16.085Z,826.03
2023-02-23T23:16:29.299Z,660.33
2023-02-23T23:17:17.298Z,665.08
2023-02-23T23:18:16.321Z,688.21
2023-02-23T23:19:16.375Z,712.28
2023-02-23T23:20:16.446Z,710.07
2023-02-23T23:21:16.508Z,770.40
2023-02-23T23:22:16.629Z,785.39
2023-02-23T23:23:16.648Z,781.80
2023-02-23T23:24:16.723Z,871.53
2023-02-23T23:25:16.786Z,810.04
2023-02-23T23:26:16.862Z,678.74
2023-02-23T23:27:16.934Z,644.09
2023-02-23T23:28:17.009Z,614.94
2023-02-23T23:29:17.078Z,620.14
2023-02-23T23:30:17.155Z,613.94
2023-02-23T23:31:17.420Z,579.81
2023-02-23T23:32:17.571Z,555.05
2023-02-23T23:33:17.480Z,565.80
